Time;durP1;ratioP1;P1;durP2;ratioP2;P2;SDS_P1;SDS_P2;PMS_P1;PMS_P2;Temp;Humidity;BMP_temperature;BMP_pressure;BME280_temperature;BME280_humidity;BME280_pressure;Samples;Min_cycle;Max_cycle;Signal;HPM_P1;HPM_P2
2022/01/19 00:01:35;;;;;;;41.33;22.08;;;4.70;99.90;;;;;;5091222;28;20062;-76
2022/01/19 00:04:00;;;;;;;44.50;24.20;;;4.70;99.90;;;;;;5074587;28;20048;-77
2022/01/19 00:06:26;;;;;;;45.05;23.02;;;4.60;99.90;;;;;;5091551;28;20086;-76
2022/01/19 00:08:52;;;;;;;44.33;22.80;;;4.60;99.90;;;;;;5091188;28;20750;-76
2022/01/19 00:11:18;;;;;;;53.13;27.48;;;4.60;99.90;;;;;;5091481;28;20040;-76
2022/01/19 00:13:44;;;;;;;48.35;24.08;;;4.60;99.90;;;;;;5090806;28;20044;-76
2022/01/19 00:16:10;;;;;;;45.95;21.77;;;4.60;99.90;;;;;;5091370;28;20052;-76
2022/01/19 00:18:35;;;;;;;47.15;23.00;;;4.60;99.90;;;;;;5091060;28;20088;-76
2022/01/19 00:21:01;;;;;;;50.95;24.02;;;4.60;99.90;;;;;;5073901;28;20123;-77
2022/01/19 00:23:27;;;;;;;;;;;4.60;99.90;;;;;;5091368;28;20165;-76
2022/01/19 00:25:54;;;;;;;53.47;24.85;;;4.60;99.90;;;;;;5090898;28;20015;-76
2022/01/19 00:28:20;;;;;;;57.45;25.85;;;4.60;99.90;;;;;;5074039;28;20553;-76
2022/01/19 00:30:47;;;;;;;50.63;23.83;;;4.60;99.90;;;;;;5073951;28;20044;-76
2022/01/19 00:33:13;;;;;;;47.75;24.40;;;4.60;99.90;;;;;;5085341;28;20503;-76
2022/01/19 00:35:39;;;;;;;39.72;21.45;;;4.50;99.90;;;;;;5070079;28;20052;-76
2022/01/19 00:38:07;;;;;;;40.10;21.63;;;4.50;99.90;;;;;;5072062;28;20051;-76
2022/01/19 00:40:34;;;;;;;38.25;21.63;;;4.50;99.90;;;;;;5070313;28;20037;-76
2022/01/19 00:42:59;;;;;;;43.10;22.42;;;4.50;99.90;;;;;;5070642;28;20040;-76
2022/01/19 00:45:25;;;;;;;45.17;23.27;;;4.40;99.90;;;;;;5070407;28;20045;-76
2022/01/19 00:47:51;;;;;;;43.20;21.98;;;4.40;99.90;;;;;;5070110;28;20044;-76
2022/01/19 00:50:21;;;;;;;38.75;20.88;;;4.40;99.90;;;;;;5070635;28;20041;-77
2022/01/19 00:52:47;;;;;;;37.45;18.50;;;4.40;99.90;;;;;;5071647;28;20048;-76
2022/01/19 00:55:14;;;;;;;40.45;18.30;;;4.40;99.90;;;;;;5071752;28;20086;-76
2022/01/19 00:57:40;;;;;;;40.88;20.13;;;4.30;99.90;;;;;;5071104;28;20037;-76
2022/01/19 01:00:09;;;;;;;45.88;20.80;;;4.30;99.90;;;;;;5069850;28;20044;-76
2022/01/19 01:02:35;;;;;;;40.78;18.50;;;4.30;99.90;;;;;;5071368;28;20557;-76
2022/01/19 01:05:02;;;;;;;44.40;20.67;;;4.30;99.90;;;;;;5053436;28;20072;-76
2022/01/19 01:07:29;;;;;;;46.28;20.25;;;4.30;99.90;;;;;;5070896;28;20164;-77
2022/01/19 01:09:55;;;;;;;50.80;23.33;;;4.30;99.90;;;;;;5053101;28;20045;-77
2022/01/19 01:12:27;;;;;;;53.35;22.00;;;4.30;99.90;;;;;;5070820;28;20055;-77
2022/01/19 01:20:21;;;;;;;58.03;23.33;;;4.30;99.90;;;;;;5071323;28;20482;-76
2022/01/19 01:22:47;;;;;;;63.60;24.23;;;4.20;99.90;;;;;;5069205;28;20127;-76
2022/01/19 01:25:13;;;;;;;60.22;23.45;;;4.30;99.90;;;;;;5052983;28;20136;-76
2022/01/19 01:27:39;;;;;;;62.95;23.77;;;4.30;99.90;;;;;;5069430;28;20490;-77
2022/01/19 01:30:06;;;;;;;66.15;22.92;;;4.30;99.90;;;;;;5069940;28;20048;-76
2022/01/19 01:32:32;;;;;;;62.33;22.08;;;4.30;99.90;;;;;;5069265;28;20549;-76
2022/01/19 01:34:58;;;;;;;69.07;25.15;;;4.30;99.90;;;;;;5072665;28;20048;-76
2022/01/19 01:37:23;;;;;;;66.10;24.25;;;4.30;99.90;;;;;;5089726;28;20040;-76
2022/01/19 01:39:50;;;;;;;68.05;25.40;;;4.30;99.90;;;;;;5089691;28;20052;-77
2022/01/19 01:42:18;;;;;;;64.05;24.85;;;4.30;99.90;;;;;;5089629;28;20040;-76
2022/01/19 01:44:47;;;;;;;61.75;24.73;;;4.30;99.90;;;;;;5090702;28;20048;-76
2022/01/19 01:47:15;;;;;;;77.35;26.10;;;4.30;99.90;;;;;;5089017;28;20521;-76
2022/01/19 01:53:26;;;;;;;72.15;27.80;;;4.30;99.90;;;;;;5089244;28;20473;-76
2022/01/19 01:55:19;;;;;;;;;;;4.30;99.90;;;;;;5089651;28;20051;-76
2022/01/19 01:57:46;;;;;;;69.60;25.23;;;4.30;99.90;;;;;;5090379;28;19930;-76
2022/01/19 02:00:15;;;;;;;61.90;26.02;;;4.30;99.90;;;;;;5089273;28;20044;-77
2022/01/19 02:02:41;;;;;;;70.05;27.65;;;4.40;99.90;;;;;;5090257;28;20040;-76
2022/01/19 02:05:10;;;;;;;72.50;28.10;;;4.40;99.90;;;;;;5090382;28;20085;-77
2022/01/19 02:24:15;;;;;;;71.65;24.77;;;4.50;99.90;;;;;;5088833;28;20063;-76
2022/01/19 02:29:42;;;;;;;75.13;26.90;;;4.50;99.90;;;;;;5088817;28;20081;-76
2022/01/19 02:40:22;;;;;;;69.70;26.13;;;4.40;99.90;;;;;;5068719;28;20135;-76
2022/01/19 02:51:00;;;;;;;75.88;26.95;;;4.40;99.90;;;;;;5068294;28;20051;-77
2022/01/19 02:53:25;;;;;;;62.65;24.83;;;4.40;99.90;;;;;;5068121;28;20040;-76
2022/01/19 02:55:51;;;;;;;81.07;26.52;;;4.40;99.90;;;;;;5068085;28;20044;-76
2022/01/19 02:58:20;;;;;;;69.18;25.25;;;4.50;99.90;;;;;;5049959;28;20041;-76
2022/01/19 03:08:59;;;;;;;70.50;23.83;;;4.50;99.90;;;;;;5071721;28;20143;-76
2022/01/19 03:11:24;;;;;;;67.95;25.98;;;4.50;99.90;;;;;;5072525;28;20072;-76
2022/01/19 03:13:51;;;;;;;73.55;28.40;;;4.50;99.90;;;;;;5073473;28;20608;-76
2022/01/19 03:16:18;;;;;;;74.82;27.95;;;4.50;99.90;;;;;;5072010;28;20037;-76
2022/01/19 03:18:45;;;;;;;72.00;26.13;;;4.50;99.90;;;;;;5072105;28;20052;-77
2022/01/19 03:21:10;;;;;;;76.63;26.23;;;4.40;99.90;;;;;;5073606;28;20037;-77
2022/01/19 03:23:36;;;;;;;81.30;28.17;;;4.50;99.90;;;;;;5071954;28;20048;-76
2022/01/19 03:26:06;;;;;;;81.25;27.42;;;4.50;99.90;;;;;;5054864;28;20066;-76
2022/01/19 03:28:32;;;;;;;79.20;27.75;;;4.50;99.90;;;;;;5072549;28;20525;-77
2022/01/19 03:30:59;;;;;;;70.53;26.08;;;4.50;99.90;;;;;;5073025;28;20045;-76
2022/01/19 03:33:24;;;;;;;89.03;26.73;;;4.50;99.90;;;;;;5071372;28;20079;-77
2022/01/19 03:35:51;;;;;;;78.35;27.75;;;4.50;99.90;;;;;;5071721;28;20040;-77
2022/01/19 03:38:17;;;;;;;81.25;25.67;;;4.50;99.90;;;;;;5071471;28;20488;-76
2022/01/19 03:40:42;;;;;;;75.60;27.90;;;4.50;99.90;;;;;;5072578;28;20036;-76
2022/01/19 03:43:09;;;;;;;74.18;27.70;;;4.50;99.90;;;;;;5071370;28;20080;-76
2022/01/19 03:45:35;;;;;;;82.70;27.80;;;4.50;99.90;;;;;;5071437;28;20563;-77
2022/01/19 03:50:42;;;;;;;64.35;23.75;;;4.50;99.90;;;;;;5071623;28;20119;-77
2022/01/19 03:53:08;;;;;;;75.50;27.60;;;4.50;99.90;;;;;;5072146;28;20048;-76
2022/01/19 03:55:34;;;;;;;73.97;26.20;;;4.50;99.90;;;;;;5071183;28;20489;-77
2022/01/19 03:57:59;;;;;;;71.43;27.58;;;4.50;99.90;;;;;;5072665;28;20043;-76
2022/01/19 04:00:26;;;;;;;69.95;27.65;;;4.50;99.90;;;;;;5072453;28;20043;-76
2022/01/19 04:02:51;;;;;;;64.85;26.30;;;4.50;99.90;;;;;;5071030;28;20070;-77
2022/01/19 04:05:24;;;;;;;49.13;21.05;;;4.50;99.90;;;;;;5070788;28;20445;-76
2022/01/19 04:07:50;;;;;;;70.95;28.23;;;4.50;99.90;;;;;;5052380;28;20199;-76
2022/01/19 04:10:16;;;;;;;72.85;26.58;;;4.50;99.90;;;;;;5050923;28;20132;-76
2022/01/19 04:13:08;;;;;;;71.82;26.92;;;4.50;99.90;;;;;;5052231;28;20044;-76
2022/01/19 04:15:33;;;;;;;66.18;25.48;;;4.50;99.90;;;;;;5034064;28;20045;-76
2022/01/19 04:17:59;;;;;;;78.30;28.63;;;4.50;99.90;;;;;;5034398;28;20607;-77
2022/01/19 04:20:26;;;;;;;63.15;26.88;;;4.60;99.90;;;;;;5034156;28;20499;-77
2022/01/19 04:22:52;;;;;;;60.88;26.45;;;4.60;99.90;;;;;;5052050;28;20048;-76
2022/01/19 04:25:18;;;;;;;66.68;28.85;;;4.60;99.90;;;;;;5050768;28;20052;-77
2022/01/19 04:27:44;;;;;;;72.78;30.30;;;4.60;99.90;;;;;;5050261;28;20136;-77
2022/01/19 04:30:12;;;;;;;68.13;28.55;;;4.60;99.90;;;;;;5034109;28;20549;-76
2022/01/19 04:35:13;;;;;;;75.35;28.23;;;4.60;99.90;;;;;;5051370;28;20053;-77
2022/01/19 04:37:53;;;;;;;72.22;29.98;;;4.60;99.90;;;;;;5051586;28;20052;-77
2022/01/19 04:54:35;;;;;;;78.87;29.93;;;4.40;99.90;;;;;;5051560;28;20060;-77
2022/01/19 05:15:46;;;;;;;86.40;34.72;;;4.50;99.90;;;;;;5070763;28;20549;-77
2022/01/19 05:18:12;;;;;;;80.15;30.88;;;4.50;99.90;;;;;;5070340;28;20044;-77
2022/01/19 05:20:38;;;;;;;81.63;34.50;;;4.50;99.90;;;;;;5052833;28;20044;-77
2022/01/19 05:23:03;;;;;;;78.18;32.13;;;4.40;99.90;;;;;;5069461;28;20082;-77
2022/01/19 05:25:29;;;;;;;84.22;32.00;;;4.50;99.90;;;;;;5069946;28;20060;-77
2022/01/19 05:27:55;;;;;;;85.30;34.20;;;4.50;99.90;;;;;;5069316;28;20052;-77
2022/01/19 05:30:21;;;;;;;76.90;32.58;;;4.50;99.90;;;;;;5068942;28;20040;-77
2022/01/19 05:32:48;;;;;;;82.88;32.72;;;4.50;99.90;;;;;;5068482;28;20087;-77
2022/01/19 05:35:14;;;;;;;82.63;33.60;;;4.50;99.90;;;;;;5070561;28;20515;-76
2022/01/19 05:37:39;;;;;;;77.57;32.85;;;4.50;99.90;;;;;;5052404;28;20049;-77
2022/01/19 05:40:08;;;;;;;73.22;30.27;;;4.50;99.90;;;;;;5052530;28;20044;-77
2022/01/19 05:42:34;;;;;;;80.88;31.33;;;4.40;99.90;;;;;;5067646;28;20056;-77
2022/01/19 05:45:00;;;;;;;75.72;32.25;;;4.50;99.90;;;;;;5068294;28;20052;-77
2022/01/19 05:47:26;;;;;;;70.97;29.05;;;4.50;99.90;;;;;;5069711;28;20380;-76
2022/01/19 05:49:52;;;;;;;77.43;31.92;;;4.50;99.90;;;;;;5067268;28;20052;-75
2022/01/19 05:52:17;;;;;;;76.15;31.60;;;4.50;99.90;;;;;;5069616;28;20045;-75
2022/01/19 05:54:43;;;;;;;79.18;31.90;;;4.50;99.90;;;;;;5069304;28;20040;-76
2022/01/19 05:57:09;;;;;;;80.80;32.38;;;4.50;99.90;;;;;;5068805;28;20074;-76
2022/01/19 05:59:35;;;;;;;80.32;31.55;;;4.50;99.90;;;;;;5068037;28;20486;-76
2022/01/19 06:02:01;;;;;;;75.78;30.85;;;4.50;99.90;;;;;;5068729;28;20084;-76
2022/01/19 06:04:26;;;;;;;75.72;31.30;;;4.50;99.90;;;;;;5069811;28;20075;-76
2022/01/19 06:06:55;;;;;;;70.38;30.83;;;4.50;99.90;;;;;;5068169;28;20048;-76
2022/01/19 06:09:32;;;;;;;73.40;31.77;;;4.50;99.90;;;;;;5067979;28;20066;-76
2022/01/19 06:11:58;;;;;;;73.70;31.42;;;4.50;99.90;;;;;;5068819;28;20127;-76
2022/01/19 06:14:24;;;;;;;75.13;31.65;;;4.50;99.90;;;;;;5068445;28;20538;-76
2022/01/19 06:16:49;;;;;;;70.50;30.80;;;4.50;99.90;;;;;;5067741;28;20131;-76
2022/01/19 06:19:19;;;;;;;69.07;30.13;;;4.50;99.90;;;;;;5069354;28;20140;-76
2022/01/19 06:21:45;;;;;;;70.70;31.92;;;4.50;99.90;;;;;;5068062;28;20057;-76
2022/01/19 06:24:10;;;;;;;65.15;30.30;;;4.50;99.90;;;;;;5067757;28;20060;-76
2022/01/19 06:26:38;;;;;;;69.63;30.17;;;4.50;99.90;;;;;;5051471;28;20135;-76
2022/01/19 06:29:04;;;;;;;72.18;30.85;;;4.50;99.90;;;;;;5068024;28;20414;-76
2022/01/19 06:31:30;;;;;;;67.88;29.88;;;4.50;99.90;;;;;;5067944;28;20094;-76
2022/01/19 06:33:56;;;;;;;71.65;31.20;;;4.50;99.90;;;;;;5068423;28;20451;-76
2022/01/19 06:36:22;;;;;;;73.57;31.10;;;4.50;99.90;;;;;;5068283;28;20131;-76
2022/01/19 06:38:48;;;;;;;68.80;31.23;;;4.40;99.90;;;;;;5050985;28;20506;-76
2022/01/19 06:41:13;;;;;;;79.32;34.42;;;4.50;99.90;;;;;;5067692;28;20053;-76
2022/01/19 06:43:39;;;;;;;66.85;30.10;;;4.50;99.90;;;;;;5067719;28;20048;-73
2022/01/19 06:46:05;;;;;;;67.55;30.02;;;4.40;99.90;;;;;;5069195;28;20582;-73
2022/01/19 06:48:30;;;;;;;67.78;30.30;;;4.50;99.90;;;;;;5062252;28;20040;-73
2022/01/19 06:50:56;;;;;;;64.90;30.48;;;4.50;99.90;;;;;;5068233;28;20075;-73
2022/01/19 06:53:22;;;;;;;65.28;31.05;;;4.40;99.90;;;;;;5050845;28;20032;-74
2022/01/19 06:55:48;;;;;;;63.90;30.27;;;4.50;99.90;;;;;;5067520;28;20126;-74
2022/01/19 06:58:13;;;;;;;72.28;32.38;;;4.40;99.90;;;;;;5068227;28;20040;-75
2022/01/19 07:00:40;;;;;;;71.38;30.27;;;4.40;99.90;;;;;;5050952;28;20041;-75
2022/01/19 07:03:06;;;;;;;67.30;30.90;;;4.40;99.90;;;;;;5050825;28;20047;-74
2022/01/19 07:05:31;;;;;;;66.55;30.92;;;4.50;99.90;;;;;;5050780;28;20495;-75
2022/01/19 07:07:57;;;;;;;70.47;31.35;;;4.40;99.90;;;;;;5067459;28;20054;-75
2022/01/19 07:10:24;;;;;;;66.25;29.73;;;4.40;99.90;;;;;;5067383;28;20087;-75
2022/01/19 07:12:50;;;;;;;65.13;30.63;;;4.40;99.90;;;;;;5067580;28;20135;-75
2022/01/19 07:15:16;;;;;;;66.68;30.10;;;4.40;99.90;;;;;;5067367;28;21122;-75
2022/01/19 07:17:42;;;;;;;63.03;28.00;;;4.40;99.90;;;;;;5067957;28;20076;-75
2022/01/19 07:20:08;;;;;;;66.60;30.42;;;4.40;99.90;;;;;;5051194;28;20076;-76
2022/01/19 07:22:34;;;;;;;62.40;30.15;;;4.40;99.90;;;;;;5069172;28;20040;-75
2022/01/19 07:25:00;;;;;;;63.47;31.02;;;4.40;99.90;;;;;;5067276;28;20056;-75
2022/01/19 07:27:27;;;;;;;65.72;31.38;;;4.40;99.90;;;;;;5068427;28;20106;-75
2022/01/19 07:29:52;;;;;;;62.45;30.80;;;4.40;99.90;;;;;;5050681;28;20139;-75
2022/01/19 07:32:19;;;;;;;65.20;27.75;;;4.40;99.90;;;;;;5067600;28;20048;-75
2022/01/19 07:34:45;;;;;;;64.53;29.77;;;4.40;99.90;;;;;;5067511;28;20064;-75
2022/01/19 07:37:11;;;;;;;65.72;31.48;;;4.40;99.90;;;;;;5067805;28;20519;-75
2022/01/19 07:39:37;;;;;;;61.63;30.10;;;4.40;99.90;;;;;;5050085;28;20044;-75
2022/01/19 07:42:04;;;;;;;66.57;30.30;;;4.40;99.90;;;;;;5068003;28;20097;-77
2022/01/19 07:44:29;;;;;;;68.07;30.00;;;4.40;99.90;;;;;;5049838;28;20079;-75
2022/01/19 07:46:55;;;;;;;65.28;30.73;;;4.40;99.90;;;;;;5050067;28;20149;-75
2022/01/19 07:49:21;;;;;;;69.57;29.17;;;4.40;99.90;;;;;;5066367;28;20045;-75
2022/01/19 07:51:47;;;;;;;67.88;31.45;;;4.40;99.90;;;;;;5066980;28;20044;-75
2022/01/19 07:54:13;;;;;;;68.57;28.45;;;4.40;99.90;;;;;;5070671;28;20566;-75
2022/01/19 07:56:39;;;;;;;63.22;30.35;;;4.40;99.90;;;;;;5071082;28;20045;-77
2022/01/19 07:59:04;;;;;;;71.22;31.98;;;4.40;99.90;;;;;;5072514;28;20131;-75
2022/01/19 08:01:31;;;;;;;59.67;27.98;;;4.40;99.90;;;;;;5071682;28;20041;-75
2022/01/19 08:04:00;;;;;;;63.83;29.20;;;4.40;99.90;;;;;;5071546;28;20888;-75
2022/01/19 08:06:26;;;;;;;67.78;29.23;;;4.40;99.90;;;;;;5072293;28;20056;-75
2022/01/19 08:08:53;;;;;;;64.18;31.70;;;4.40;99.90;;;;;;5070841;28;20044;-75
2022/01/19 08:11:18;;;;;;;64.00;28.05;;;4.40;99.90;;;;;;5070649;28;20128;-76
2022/01/19 08:13:44;;;;;;;69.53;31.33;;;4.40;99.90;;;;;;5071400;28;20151;-77
2022/01/19 08:16:09;;;;;;;65.10;31.00;;;4.40;99.90;;;;;;5070611;28;20050;-75
2022/01/19 08:18:35;;;;;;;73.35;33.35;;;4.40;99.90;;;;;;5053832;28;20044;-75
2022/01/19 08:21:02;;;;;;;64.15;29.50;;;4.50;99.90;;;;;;5053628;28;20044;-75
2022/01/19 08:23:28;;;;;;;68.15;31.00;;;4.50;99.90;;;;;;5071688;28;20032;-75
2022/01/19 08:25:53;;;;;;;62.35;29.95;;;4.50;99.90;;;;;;5053519;28;20102;-75
2022/01/19 08:28:20;;;;;;;64.45;28.98;;;4.50;99.90;;;;;;5070193;28;20041;-75
2022/01/19 08:30:46;;;;;;;77.13;32.53;;;4.50;99.90;;;;;;5053819;28;20036;-75
2022/01/19 08:33:12;;;;;;;67.32;29.05;;;4.50;99.90;;;;;;5070502;28;20104;-75
2022/01/19 08:35:38;;;;;;;69.90;32.35;;;4.50;99.90;;;;;;5070265;28;20511;-75
2022/01/19 08:38:04;;;;;;;68.38;31.25;;;4.60;99.90;;;;;;5069197;28;20052;-75
2022/01/19 08:40:30;;;;;;;74.03;29.77;;;4.60;99.90;;;;;;5069279;28;20044;-75
2022/01/19 08:42:56;;;;;;;71.30;33.88;;;4.60;99.90;;;;;;5069643;28;20613;-75
2022/01/19 08:45:22;;;;;;;63.22;31.58;;;4.60;99.90;;;;;;5070566;28;20045;-75
2022/01/19 08:47:48;;;;;;;64.93;32.13;;;4.60;99.90;;;;;;5069024;28;20552;-75
2022/01/19 08:50:15;;;;;;;74.32;35.13;;;4.70;99.90;;;;;;5069796;28;20071;-75
2022/01/19 08:52:44;;;;;;;70.35;32.03;;;4.70;99.90;;;;;;5069041;28;20051;-75
2022/01/19 08:55:11;;;;;;;71.78;32.95;;;4.70;99.90;;;;;;5070303;28;20425;-75
2022/01/19 08:57:36;;;;;;;70.38;33.03;;;4.70;99.90;;;;;;5069219;28;20052;-76
2022/01/19 09:00:06;;;;;;;73.28;32.92;;;4.70;99.90;;;;;;5069194;28;20037;-75
2022/01/19 09:02:32;;;;;;;74.82;33.50;;;4.70;99.90;;;;;;5070289;28;20127;-75
2022/01/19 09:04:58;;;;;;;70.47;33.03;;;4.80;99.90;;;;;;5068267;28;20143;-75
2022/01/19 09:07:23;;;;;;;73.28;34.40;;;4.80;99.90;;;;;;5068868;28;20055;-75
2022/01/19 09:09:49;;;;;;;73.13;34.63;;;4.80;99.90;;;;;;5068048;28;20046;-75
2022/01/19 09:12:15;;;;;;;63.83;30.00;;;4.80;99.90;;;;;;5069167;28;20411;-75
2022/01/19 09:14:40;;;;;;;70.20;33.65;;;4.90;99.90;;;;;;5068846;28;20048;-76
2022/01/19 09:17:07;;;;;;;71.57;32.95;;;4.90;99.90;;;;;;5052236;28;20398;-76
2022/01/19 09:19:35;;;;;;;68.93;35.53;;;5.00;99.90;;;;;;5051923;28;20059;-76
2022/01/19 09:22:03;;;;;;;71.43;33.90;;;5.00;99.90;;;;;;5068888;28;20127;-76
2022/01/19 09:24:30;;;;;;;65.75;33.30;;;5.00;99.90;;;;;;5067940;28;20093;-76
2022/01/19 09:26:56;;;;;;;68.63;35.22;;;5.10;99.90;;;;;;5070068;28;20048;-76
2022/01/19 09:29:22;;;;;;;72.38;34.17;;;5.10;99.90;;;;;;5068161;28;20135;-76
2022/01/19 09:31:47;;;;;;;64.93;33.03;;;5.10;99.90;;;;;;5068566;28;20127;-76
2022/01/19 09:34:15;;;;;;;58.97;31.60;;;5.10;99.90;;;;;;5051676;28;20071;-76
2022/01/19 09:36:46;;;;;;;65.22;32.53;;;5.10;99.90;;;;;;5069686;28;20043;-76
2022/01/19 09:39:19;;;;;;;65.60;34.22;;;5.20;99.90;;;;;;5051705;28;20131;-76
2022/01/19 09:41:46;;;;;;;64.80;32.00;;;5.20;99.90;;;;;;5068686;28;20406;-76
2022/01/19 09:44:12;;;;;;;67.07;33.10;;;5.20;99.90;;;;;;5068737;28;20052;-76
2022/01/19 09:46:39;;;;;;;66.97;33.70;;;5.20;99.90;;;;;;5068294;28;20060;-76
2022/01/19 09:49:08;;;;;;;61.20;32.13;;;5.30;99.90;;;;;;5068085;28;20051;-76
2022/01/19 09:51:34;;;;;;;63.45;33.65;;;5.30;99.90;;;;;;5069429;28;20392;-76
2022/01/19 09:54:01;;;;;;;64.63;31.77;;;5.30;99.90;;;;;;5068043;28;20493;-76
2022/01/19 09:56:27;;;;;;;62.75;30.92;;;5.30;99.90;;;;;;5069252;28;20033;-76
2022/01/19 09:58:53;;;;;;;63.22;30.13;;;5.30;99.90;;;;;;5067706;28;20051;-76
2022/01/19 10:01:21;;;;;;;62.90;32.90;;;5.30;99.90;;;;;;5069416;28;20426;-76
2022/01/19 10:03:47;;;;;;;60.85;31.40;;;5.30;99.90;;;;;;5051196;28;20056;-76
2022/01/19 10:06:16;;;;;;;58.60;30.23;;;5.30;99.90;;;;;;5068789;28;20678;-76
2022/01/19 10:08:47;;;;;;;71.72;32.60;;;5.30;99.90;;;;;;5067798;28;20083;-76
2022/01/19 10:11:28;;;;;;;58.10;29.83;;;5.30;99.90;;;;;;5068617;28;20289;-76
2022/01/19 10:17:09;;;;;;;58.05;29.67;;;5.20;99.90;;;;;;5067637;28;20102;-76
2022/01/19 10:19:43;;;;;;;60.33;29.65;;;5.20;99.90;;;;;;5067283;28;20499;-76
2022/01/19 10:22:20;;;;;;;67.03;32.67;;;5.10;99.90;;;;;;5068851;28;20032;-76
2022/01/19 10:24:50;;;;;;;59.28;28.35;;;5.10;99.90;;;;;;5050278;28;20143;-76
2022/01/19 10:27:18;;;;;;;64.65;30.00;;;5.10;99.90;;;;;;5050515;28;20045;-76
2022/01/19 10:29:45;;;;;;;65.65;32.25;;;5.10;99.90;;;;;;5067469;28;20062;-76
2022/01/19 10:32:10;;;;;;;64.50;30.92;;;5.10;99.90;;;;;;5067910;28;20048;-75
2022/01/19 10:34:36;;;;;;;57.47;29.13;;;5.10;99.90;;;;;;5068045;28;20049;-76
2022/01/19 10:37:04;;;;;;;66.25;31.65;;;5.10;99.90;;;;;;5069641;28;20042;-76
2022/01/19 10:39:49;;;;;;;58.50;31.27;;;5.10;99.90;;;;;;5051195;28;20143;-76
2022/01/19 10:42:21;;;;;;;59.63;31.70;;;5.10;99.90;;;;;;5051425;28;20076;-76
2022/01/19 10:44:54;;;;;;;69.45;32.83;;;5.10;99.90;;;;;;5069431;28;20072;-76
2022/01/19 10:47:42;;;;;;;65.72;31.85;;;5.10;99.90;;;;;;5068239;28;20055;-76
2022/01/19 10:50:11;;;;;;;63.08;30.33;;;5.10;99.90;;;;;;5051447;28;20043;-76
2022/01/19 10:52:40;;;;;;;59.60;32.13;;;5.10;99.90;;;;;;5069199;28;20474;-76
2022/01/19 10:55:25;;;;;;;61.08;31.35;;;5.10;99.90;;;;;;5051516;28;20047;-76
2022/01/19 10:57:52;;;;;;;62.10;29.80;;;5.10;99.90;;;;;;5037298;28;20091;-76
2022/01/19 11:00:28;;;;;;;66.05;34.35;;;5.10;99.90;;;;;;5069395;28;20123;-76
2022/01/19 11:02:56;;;;;;;62.42;33.42;;;5.10;99.90;;;;;;5051266;28;20048;-76
2022/01/19 11:05:45;;;;;;;63.95;32.30;;;5.10;99.90;;;;;;5068777;28;20105;-76
2022/01/19 11:08:12;;;;;;;62.83;33.45;;;5.10;99.90;;;;;;5050715;28;20090;-75
2022/01/19 11:10:39;;;;;;;69.72;36.30;;;5.10;99.90;;;;;;5068840;28;20078;-75
2022/01/19 11:13:13;;;;;;;61.25;32.83;;;5.10;99.90;;;;;;5069240;28;20049;-75
2022/01/19 11:15:39;;;;;;;56.77;28.83;;;5.20;99.90;;;;;;5067729;28;20040;-75
2022/01/19 11:18:04;;;;;;;63.92;33.30;;;5.20;99.90;;;;;;5068398;28;20866;-75
2022/01/19 11:20:38;;;;;;;69.68;35.60;;;5.10;99.90;;;;;;5050967;28;20048;-75
2022/01/19 11:23:29;;;;;;;67.35;35.95;;;5.20;99.90;;;;;;5050702;28;20097;-75
2022/01/19 11:26:02;;;;;;;59.67;31.52;;;5.20;99.90;;;;;;5067605;28;20187;-75
2022/01/19 11:28:42;;;;;;;66.90;30.80;;;5.20;99.90;;;;;;5068794;28;20068;-78
2022/01/19 11:31:14;;;;;;;71.85;35.22;;;5.20;99.90;;;;;;5072825;28;20113;-75
2022/01/19 11:33:47;;;;;;;67.07;34.90;;;5.20;99.90;;;;;;5054876;28;20049;-75
2022/01/19 11:36:24;;;;;;;68.72;35.75;;;5.20;99.90;;;;;;5072999;28;20789;-75
2022/01/19 11:39:07;;;;;;;67.57;33.70;;;5.30;99.90;;;;;;5070977;28;20056;-77
2022/01/19 11:41:50;;;;;;;59.78;31.90;;;5.30;99.90;;;;;;5072608;28;20048;-75
2022/01/19 11:44:28;;;;;;;64.38;34.20;;;5.30;99.90;;;;;;5053696;28;20044;-76
2022/01/19 11:46:56;;;;;;;68.57;33.80;;;5.40;99.90;;;;;;5070269;28;20044;-77
2022/01/19 11:49:58;;;;;;;68.45;37.20;;;5.40;99.90;;;;;;5054123;28;20521;-76
2022/01/19 11:52:49;;;;;;;71.43;35.53;;;5.50;99.90;;;;;;5054104;28;20063;-77
2022/01/19 11:55:18;;;;;;;62.88;33.28;;;5.60;99.90;;;;;;5061696;28;20588;-76
2022/01/19 11:57:46;;;;;;;61.83;32.15;;;5.70;99.90;;;;;;5071830;28;20049;-76
2022/01/19 12:00:13;;;;;;;64.72;35.90;;;5.70;99.90;;;;;;5072479;28;20098;-77
2022/01/19 12:02:44;;;;;;;63.35;33.15;;;5.70;99.90;;;;;;5070518;28;20514;-77
2022/01/19 12:05:10;;;;;;;67.68;36.10;;;5.80;99.90;;;;;;5070928;28;20051;-77
2022/01/19 12:07:44;;;;;;;66.47;34.53;;;5.80;99.90;;;;;;5053826;28;20041;-76
2022/01/19 12:10:11;;;;;;;;;;;5.90;99.90;;;;;;5072619;28;20531;-77
2022/01/19 12:12:46;;;;;;;70.68;36.55;;;5.90;99.90;;;;;;5070003;28;19921;-77
2022/01/19 12:15:49;;;;;;;64.32;35.10;;;5.90;99.90;;;;;;5072105;28;20080;-75
2022/01/19 12:18:53;;;;;;;60.45;32.13;;;5.90;99.90;;;;;;5071040;28;20457;-76
2022/01/19 12:21:31;;;;;;;61.95;33.33;;;5.90;99.90;;;;;;5070268;28;20036;-76
2022/01/19 12:24:32;;;;;;;64.43;35.90;;;5.90;99.90;;;;;;5071125;28;20453;-76
2022/01/19 12:27:03;;;;;;;65.70;33.47;;;5.80;99.90;;;;;;5033285;28;20060;-76
2022/01/19 12:29:38;;;;;;;71.97;36.30;;;5.80;99.90;;;;;;5032575;28;20064;-76
2022/01/19 12:32:09;;;;;;;65.60;36.90;;;5.70;99.90;;;;;;5033252;28;20044;-76
2022/01/19 12:34:52;;;;;;;71.13;36.47;;;5.70;99.90;;;;;;5050504;28;20040;-76
2022/01/19 12:37:27;;;;;;;64.60;36.22;;;5.70;99.90;;;;;;5033229;28;20056;-76
2022/01/19 12:39:54;;;;;;;68.93;37.40;;;5.70;99.90;;;;;;5049612;28;20045;-76
2022/01/19 12:42:27;;;;;;;64.18;34.53;;;5.70;99.90;;;;;;5033062;28;20049;-76
2022/01/19 12:44:59;;;;;;;68.03;35.72;;;5.70;99.90;;;;;;5032456;28;20102;-76
2022/01/19 12:47:24;;;;;;;74.75;37.70;;;5.70;99.90;;;;;;5033198;28;20045;-76
2022/01/19 12:50:08;;;;;;;65.38;36.88;;;5.70;99.90;;;;;;5015953;28;20706;-76
2022/01/19 12:52:42;;;;;;;71.18;36.40;;;5.70;99.90;;;;;;5050406;28;20619;-76
2022/01/19 12:55:13;;;;;;;62.47;34.85;;;5.70;99.90;;;;;;5032414;28;20438;-76
2022/01/19 12:57:39;;;;;;;63.03;32.90;;;5.70;99.90;;;;;;5050467;28;20094;-76
2022/01/19 13:00:09;;;;;;;64.75;32.10;;;5.70;99.90;;;;;;5016190;28;20048;-76
2022/01/19 13:02:35;;;;;;;64.05;32.50;;;5.70;99.90;;;;;;5016220;28;20487;-75
2022/01/19 13:05:10;;;;;;;73.47;30.15;;;5.70;99.90;;;;;;5032811;28;20041;-75
2022/01/19 13:07:56;;;;;;;64.28;34.25;;;5.80;99.90;;;;;;5015766;28;20076;-76
2022/01/19 13:10:50;;;;;;;54.60;29.25;;;5.80;99.90;;;;;;5049734;28;20127;-76
2022/01/19 13:13:26;;;;;;;55.67;28.40;;;5.80;99.90;;;;;;5032522;28;20435;-77
2022/01/19 13:15:57;;;;;;;60.17;31.00;;;5.80;99.90;;;;;;5032197;28;20049;-77
2022/01/19 13:18:43;;;;;;;54.15;28.60;;;5.80;99.90;;;;;;5032084;28;20483;-77
2022/01/19 13:21:12;;;;;;;64.28;29.40;;;5.80;99.90;;;;;;5049720;28;20128;-76
2022/01/19 13:23:53;;;;;;;56.67;28.48;;;5.80;99.90;;;;;;5032272;28;20368;-76
2022/01/19 13:26:19;;;;;;;52.65;27.98;;;5.80;99.90;;;;;;5067553;28;20048;-77
2022/01/19 13:28:46;;;;;;;53.83;26.98;;;5.80;99.90;;;;;;5068537;28;20048;-77
2022/01/19 13:31:20;;;;;;;53.50;26.08;;;5.80;99.90;;;;;;5069777;28;20036;-77
2022/01/19 13:33:58;;;;;;;56.15;27.58;;;5.90;99.90;;;;;;5069866;28;20052;-77
2022/01/19 13:36:28;;;;;;;53.65;27.40;;;5.80;99.90;;;;;;5068129;28;20517;-77
2022/01/19 13:38:55;;;;;;;55.55;28.40;;;5.80;99.90;;;;;;5069834;28;20449;-76
2022/01/19 13:41:21;;;;;;;53.00;27.17;;;5.80;99.90;;;;;;5069321;28;20412;-76
2022/01/19 13:43:47;;;;;;;55.50;28.20;;;5.80;99.90;;;;;;5069898;28;20124;-77
2022/01/19 13:46:21;;;;;;;52.28;27.08;;;5.80;99.90;;;;;;5069802;28;20135;-77
2022/01/19 13:48:57;;;;;;;61.15;28.25;;;5.80;99.90;;;;;;5070018;28;20041;-77
2022/01/19 13:51:25;;;;;;;54.72;29.05;;;5.80;99.90;;;;;;5069636;28;20036;-77
2022/01/19 13:53:53;;;;;;;47.83;25.90;;;5.90;99.90;;;;;;5069480;28;20084;-77
2022/01/19 13:56:31;;;;;;;53.22;27.83;;;5.80;99.90;;;;;;5069766;28;20048;-77
2022/01/19 13:59:02;;;;;;;50.67;27.65;;;5.80;99.90;;;;;;5070594;28;20051;-77
2022/01/19 14:01:34;;;;;;;58.95;26.83;;;5.80;99.90;;;;;;5069903;28;20033;-77
2022/01/19 14:04:05;;;;;;;66.68;30.20;;;5.90;99.90;;;;;;5070425;28;20052;-77
2022/01/19 14:07:10;;;;;;;63.20;30.67;;;5.80;99.90;;;;;;5069898;28;20098;-77
2022/01/19 14:09:36;;;;;;;61.13;30.67;;;5.80;99.90;;;;;;5069693;28;20115;-77
2022/01/19 14:12:06;;;;;;;71.95;33.60;;;5.70;99.90;;;;;;5070249;28;20037;-77
2022/01/19 14:14:49;;;;;;;68.03;32.33;;;5.70;99.90;;;;;;5069665;28;20066;-77
2022/01/19 14:17:26;;;;;;;64.05;30.13;;;5.70;99.90;;;;;;5069708;28;20055;-77
2022/01/19 14:19:53;;;;;;;73.00;31.85;;;5.70;99.90;;;;;;5070026;28;20036;-77
2022/01/19 14:22:21;;;;;;;75.65;33.10;;;5.70;99.90;;;;;;5069914;28;20049;-77